Time;durP1;ratioP1;P1;durP2;ratioP2;P2;SDS_P1;SDS_P2;PMS_P1;PMS_P2;Temp;Humidity;BMP_temperature;BMP_pressure;BME280_temperature;BME280_humidity;BME280_pressure;Samples;Min_cycle;Max_cycle;Signal;HPM_P1;HPM_P2
2022/03/30 00:01:52;;;;;;;13.70;7.93;;;10.20;62.60;;;;;;4968387;28;20049;-79
2022/03/30 00:04:17;;;;;;;12.15;7.25;;;10.20;62.60;;;;;;4982457;28;20035;-79
2022/03/30 00:06:43;;;;;;;10.55;7.13;;;10.20;62.60;;;;;;4974543;28;20044;-79
2022/03/30 00:09:09;;;;;;;13.35;7.10;;;10.20;62.80;;;;;;4967655;28;20118;-79
2022/03/30 00:11:35;;;;;;;11.63;6.78;;;10.20;62.80;;;;;;4989375;28;20034;-79
2022/03/30 00:14:00;;;;;;;10.18;7.07;;;10.20;62.90;;;;;;4995467;28;20032;-80
2022/03/30 00:16:26;;;;;;;11.55;6.80;;;10.20;63.70;;;;;;4964299;28;20461;-80
2022/03/30 00:18:52;;;;;;;11.13;7.10;;;10.20;62.90;;;;;;4990092;28;20121;-79
2022/03/30 00:21:17;;;;;;;10.93;6.90;;;10.20;63.00;;;;;;4960507;28;20042;-79
2022/03/30 00:23:43;;;;;;;12.32;6.63;;;10.10;63.10;;;;;;4974698;28;20038;-80
2022/03/30 00:26:09;;;;;;;11.45;6.57;;;10.10;63.20;;;;;;4976645;28;20037;-79
2022/03/30 00:28:34;;;;;;;9.88;7.05;;;10.10;63.20;;;;;;4982984;28;20045;-79
2022/03/30 00:31:00;;;;;;;10.63;6.55;;;10.10;63.20;;;;;;4991703;28;20038;-79
2022/03/30 00:33:26;;;;;;;8.32;5.53;;;10.10;63.30;;;;;;4967707;28;20137;-79
2022/03/30 00:35:51;;;;;;;10.10;6.00;;;10.10;63.40;;;;;;4964629;28;20097;-80
2022/03/30 00:38:17;;;;;;;10.38;5.47;;;10.10;63.40;;;;;;4991499;28;20061;-80
2022/03/30 00:40:42;;;;;;;10.07;5.90;;;10.10;63.40;;;;;;4984691;28;20043;-80
2022/03/30 00:43:08;;;;;;;9.05;5.97;;;10.10;63.50;;;;;;4956366;28;20044;-81
2022/03/30 00:45:34;;;;;;;9.57;5.75;;;10.00;63.50;;;;;;4971307;28;20508;-79
2022/03/30 00:47:59;;;;;;;9.50;5.30;;;10.00;63.60;;;;;;4971418;28;20567;-80
2022/03/30 00:50:25;;;;;;;8.93;5.30;;;10.00;63.60;;;;;;4976502;28;20378;-80
2022/03/30 00:52:54;;;;;;;10.63;6.65;;;10.00;63.60;;;;;;4959266;28;20034;-80
2022/03/30 00:55:20;;;;;;;7.60;5.10;;;10.00;63.60;;;;;;4965265;28;20102;-79
2022/03/30 00:57:46;;;;;;;11.27;5.40;;;10.00;63.60;;;;;;4969568;28;20057;-80
2022/03/30 01:00:14;;;;;;;8.88;5.75;;;10.00;63.60;;;;;;4975178;28;20022;-79
2022/03/30 01:02:41;;;;;;;8.65;4.65;;;10.00;63.60;;;;;;4974563;28;20042;-79
2022/03/30 01:05:07;;;;;;;8.93;4.97;;;10.00;63.70;;;;;;4983227;28;20076;-80
2022/03/30 01:07:32;;;;;;;8.05;5.18;;;10.00;63.70;;;;;;4991045;28;20038;-79
2022/03/30 01:09:58;;;;;;;7.35;4.88;;;9.90;63.70;;;;;;4971902;28;20038;-79
2022/03/30 01:12:23;;;;;;;11.20;5.20;;;9.90;63.70;;;;;;4983039;28;20034;-79
2022/03/30 01:14:49;;;;;;;8.98;5.30;;;9.90;63.80;;;;;;4991133;28;20436;-79
2022/03/30 01:17:14;;;;;;;7.25;4.63;;;9.90;63.90;;;;;;4967572;28;20116;-80
2022/03/30 01:19:40;;;;;;;9.77;5.20;;;9.90;63.90;;;;;;4959778;28;20125;-81
2022/03/30 01:22:07;;;;;;;7.45;4.82;;;9.90;64.00;;;;;;4992783;28;20101;-79
2022/03/30 01:24:33;;;;;;;10.23;5.38;;;9.90;63.90;;;;;;4976570;28;20030;-80
2022/03/30 01:26:59;;;;;;;8.85;5.15;;;9.90;63.90;;;;;;4990287;28;20090;-80
2022/03/30 01:32:25;;;;;;;;;;;9.90;63.90;;;;;;4963884;28;20034;-80
2022/03/30 01:34:51;;;;;;;6.10;4.43;;;9.90;63.60;;;;;;4988136;28;20326;-80
2022/03/30 01:37:17;;;;;;;7.03;4.68;;;9.90;63.60;;;;;;4979398;28;20114;-80
2022/03/30 01:39:42;;;;;;;7.40;4.53;;;9.90;63.70;;;;;;4982323;28;20113;-80
2022/03/30 01:42:08;;;;;;;10.25;5.18;;;9.80;63.80;;;;;;4983425;28;20507;-79
2022/03/30 01:44:34;;;;;;;8.32;5.25;;;9.90;63.90;;;;;;4980843;28;20061;-79
2022/03/30 01:46:59;;;;;;;6.82;5.07;;;9.80;63.90;;;;;;4971933;28;20172;-80
2022/03/30 01:49:25;;;;;;;9.20;5.45;;;9.80;63.90;;;;;;4982789;28;20034;-81
2022/03/30 01:51:51;;;;;;;7.68;5.47;;;9.80;63.90;;;;;;4986404;28;20038;-79
2022/03/30 01:54:18;;;;;;;13.98;5.55;;;9.80;64.00;;;;;;4972219;28;20030;-80
2022/03/30 01:56:43;;;;;;;9.10;5.43;;;9.80;64.00;;;;;;4986849;28;20113;-80
2022/03/30 01:59:09;;;;;;;12.02;5.72;;;9.80;64.00;;;;;;4970877;28;20118;-79
2022/03/30 02:01:34;;;;;;;7.63;4.90;;;9.80;64.10;;;;;;4972899;28;20027;-79
2022/03/30 02:04:00;;;;;;;7.65;5.20;;;9.80;64.10;;;;;;4980127;28;20037;-80
2022/03/30 02:06:26;;;;;;;8.82;5.20;;;9.80;64.10;;;;;;4988014;28;20045;-80
2022/03/30 02:08:51;;;;;;;11.65;6.30;;;9.80;64.20;;;;;;4960576;28;20022;-79
2022/03/30 02:11:17;;;;;;;7.82;5.20;;;9.80;64.20;;;;;;4985328;28;20041;-80
2022/03/30 02:13:42;;;;;;;7.82;5.88;;;9.80;64.40;;;;;;4973622;28;20026;-80
2022/03/30 02:16:08;;;;;;;10.10;5.68;;;9.80;64.40;;;;;;4987594;28;20420;-80
2022/03/30 02:18:35;;;;;;;9.93;5.57;;;9.70;64.30;;;;;;4971324;28;20030;-81
2022/03/30 02:21:00;;;;;;;10.20;6.13;;;9.80;64.40;;;;;;4985933;28;20518;-79
2022/03/30 02:23:26;;;;;;;9.95;4.97;;;9.70;64.50;;;;;;4985456;28;20038;-80
2022/03/30 02:25:51;;;;;;;8.35;5.20;;;9.70;64.50;;;;;;4943784;28;20602;-80
2022/03/30 02:28:17;;;;;;;8.75;5.20;;;9.70;64.50;;;;;;4972587;28;20026;-80
2022/03/30 02:30:42;;;;;;;8.50;5.53;;;9.70;64.40;;;;;;4972916;28;20053;-80
2022/03/30 02:33:08;;;;;;;7.60;5.40;;;9.70;64.40;;;;;;4985527;28;20062;-79
2022/03/30 02:35:34;;;;;;;9.38;6.20;;;9.70;64.50;;;;;;4988680;28;20035;-80
2022/03/30 02:37:59;;;;;;;8.52;5.75;;;9.70;64.60;;;;;;4988078;28;20057;-79
2022/03/30 02:40:25;;;;;;;8.55;5.15;;;9.60;64.50;;;;;;4990582;28;20061;-80
2022/03/30 02:42:50;;;;;;;9.77;5.25;;;9.60;64.50;;;;;;4971640;28;20122;-80
2022/03/30 02:45:16;;;;;;;9.20;5.25;;;9.60;64.50;;;;;;4975395;28;20049;-80
2022/03/30 02:50:26;;;;;;;8.05;4.85;;;9.60;64.50;;;;;;4975944;28;20041;-80
2022/03/30 02:52:51;;;;;;;8.40;5.07;;;9.60;64.50;;;;;;4977209;28;20035;-80
2022/03/30 02:55:16;;;;;;;11.27;6.25;;;9.60;64.50;;;;;;4969174;28;20046;-80
2022/03/30 02:57:42;;;;;;;8.10;5.30;;;9.60;64.60;;;;;;4986423;28;20038;-80
2022/03/30 03:00:08;;;;;;;9.10;5.70;;;9.60;64.50;;;;;;4963346;28;20042;-80
2022/03/30 03:02:34;;;;;;;7.68;4.75;;;9.60;65.40;;;;;;4975140;28;20042;-80
2022/03/30 03:05:03;;;;;;;8.18;4.88;;;9.50;64.40;;;;;;4972402;28;20100;-80
2022/03/30 03:07:28;;;;;;;8.23;5.57;;;9.50;64.50;;;;;;4970306;28;20031;-79
2022/03/30 03:09:54;;;;;;;7.65;5.10;;;9.50;64.60;;;;;;4946335;28;20035;-81
2022/03/30 03:12:20;;;;;;;7.65;5.30;;;9.50;64.60;;;;;;4985733;28;20035;-80
2022/03/30 03:14:45;;;;;;;8.95;4.82;;;9.50;64.60;;;;;;4991625;28;20041;-79
2022/03/30 03:17:11;;;;;;;7.50;5.20;;;9.50;64.60;;;;;;4952461;28;20394;-79
2022/03/30 03:19:37;;;;;;;11.60;5.15;;;9.50;64.50;;;;;;4984474;28;20063;-79
2022/03/30 03:22:03;;;;;;;7.57;5.47;;;9.50;64.60;;;;;;4996168;28;20547;-80
2022/03/30 03:24:28;;;;;;;7.88;4.95;;;9.50;64.60;;;;;;4989899;28;20033;-80
2022/03/30 03:26:54;;;;;;;7.63;5.43;;;9.50;64.60;;;;;;4986067;28;20087;-79
2022/03/30 03:29:20;;;;;;;9.77;5.85;;;9.50;64.60;;;;;;5009680;28;20450;-80
2022/03/30 03:31:45;;;;;;;6.65;4.85;;;9.50;64.70;;;;;;4979538;28;20047;-79
2022/03/30 03:34:12;;;;;;;9.65;5.28;;;9.50;64.70;;;;;;5012609;28;20042;-80
2022/03/30 03:36:37;;;;;;;5.57;4.45;;;9.40;64.70;;;;;;5011582;28;20095;-80
2022/03/30 03:39:03;;;;;;;9.15;5.15;;;9.50;64.80;;;;;;4999902;28;20034;-79
2022/03/30 03:41:28;;;;;;;12.52;6.00;;;9.50;64.80;;;;;;5008069;28;20038;-79
2022/03/30 03:43:54;;;;;;;9.95;5.78;;;9.40;64.80;;;;;;4987896;28;20093;-81
2022/03/30 03:46:19;;;;;;;11.00;6.43;;;9.40;64.80;;;;;;4990376;28;20568;-80
2022/03/30 03:48:45;;;;;;;8.43;5.05;;;9.40;64.80;;;;;;4999082;28;20113;-80
2022/03/30 03:51:11;;;;;;;8.23;5.10;;;9.40;64.80;;;;;;5017608;28;20030;-78
2022/03/30 03:53:36;;;;;;;10.52;5.70;;;9.40;64.80;;;;;;5008815;28;20033;-79
2022/03/30 03:56:03;;;;;;;8.60;5.40;;;9.40;64.80;;;;;;4994502;28;20042;-80
2022/03/30 03:58:28;;;;;;;10.50;5.60;;;9.40;64.90;;;;;;5005321;28;20035;-79
2022/03/30 04:00:54;;;;;;;8.88;5.60;;;9.40;64.90;;;;;;4985421;28;20060;-79
2022/03/30 04:03:19;;;;;;;8.75;5.68;;;9.40;64.90;;;;;;5016450;28;20034;-79
2022/03/30 04:05:45;;;;;;;9.23;5.60;;;9.40;64.90;;;;;;5010548;28;20027;-79
2022/03/30 04:08:10;;;;;;;12.43;6.63;;;9.40;65.00;;;;;;4990328;28;21709;-79
2022/03/30 04:10:36;;;;;;;12.63;6.57;;;9.40;64.90;;;;;;4985647;28;20522;-80
2022/03/30 04:13:06;;;;;;;11.70;5.95;;;9.40;65.00;;;;;;4997644;28;20441;-80
2022/03/30 04:15:32;;;;;;;10.35;6.30;;;9.40;65.10;;;;;;4988560;28;20065;-79
2022/03/30 04:17:57;;;;;;;11.02;6.05;;;9.40;65.00;;;;;;4993292;28;20034;-79
2022/03/30 04:20:24;;;;;;;13.55;7.30;;;9.30;65.00;;;;;;4991184;28;20072;-78
2022/03/30 04:22:50;;;;;;;13.90;6.85;;;9.30;65.10;;;;;;4960059;28;20057;-79
2022/03/30 04:25:15;;;;;;;10.15;6.32;;;9.30;65.20;;;;;;4965255;28;20030;-79
2022/03/30 04:27:58;;;;;;;11.70;5.97;;;9.30;65.30;;;;;;4995170;28;20032;-81
2022/03/30 04:30:24;;;;;;;13.25;7.20;;;9.30;65.50;;;;;;4990902;28;20603;-79
2022/03/30 04:32:50;;;;;;;13.55;7.60;;;9.30;65.30;;;;;;4996198;28;20049;-79
2022/03/30 04:35:24;;;;;;;13.45;7.20;;;9.30;65.30;;;;;;4981569;28;20035;-80
2022/03/30 04:37:52;;;;;;;11.38;6.22;;;9.30;65.40;;;;;;4977061;28;20488;-79
2022/03/30 04:40:17;;;;;;;14.68;6.60;;;9.20;65.30;;;;;;4972074;28;20034;-79
2022/03/30 04:42:43;;;;;;;9.45;6.20;;;9.30;65.40;;;;;;4989944;28;20050;-80
2022/03/30 04:45:08;;;;;;;13.48;6.43;;;9.20;65.50;;;;;;4983239;28;20027;-80
2022/03/30 04:47:34;;;;;;;12.18;6.90;;;9.20;65.30;;;;;;4995858;28;20054;-81
2022/03/30 04:50:00;;;;;;;12.95;8.05;;;9.20;65.40;;;;;;4997414;28;20174;-79
2022/03/30 04:52:25;;;;;;;12.48;7.57;;;9.20;65.40;;;;;;4981376;28;20080;-80
2022/03/30 04:54:51;;;;;;;11.38;6.78;;;9.20;65.50;;;;;;4988497;28;20038;-79
2022/03/30 04:57:16;;;;;;;8.95;6.30;;;9.20;65.40;;;;;;4985572;28;20030;-79
2022/03/30 04:59:42;;;;;;;11.55;6.53;;;9.20;65.40;;;;;;4981821;28;20033;-79
2022/03/30 05:02:08;;;;;;;14.90;8.13;;;9.20;65.40;;;;;;4977013;28;20131;-79
2022/03/30 05:04:34;;;;;;;15.18;7.70;;;9.10;65.50;;;;;;4989304;28;20038;-80
2022/03/30 05:06:59;;;;;;;13.60;8.00;;;9.20;65.60;;;;;;4963260;28;20030;-80
2022/03/30 05:09:25;;;;;;;15.15;8.07;;;9.20;65.60;;;;;;4988068;28;20026;-79
2022/03/30 05:11:51;;;;;;;14.85;8.55;;;9.10;65.60;;;;;;4985872;28;20532;-79
2022/03/30 05:14:17;;;;;;;15.30;7.90;;;9.10;65.70;;;;;;4995585;28;20129;-79
2022/03/30 05:16:42;;;;;;;15.75;7.55;;;9.20;65.90;;;;;;4959230;28;20121;-79
2022/03/30 05:19:09;;;;;;;14.43;7.28;;;9.10;65.90;;;;;;4977323;28;20069;-80
2022/03/30 05:21:35;;;;;;;12.63;7.25;;;9.10;66.00;;;;;;5001928;28;20053;-80
2022/03/30 05:24:00;;;;;;;12.05;7.28;;;9.10;66.00;;;;;;4993223;28;20063;-80
2022/03/30 05:26:28;;;;;;;11.70;6.53;;;9.10;66.00;;;;;;5004799;28;20562;-80
2022/03/30 05:28:54;;;;;;;11.68;6.95;;;9.10;66.10;;;;;;4981031;28;20102;-80
2022/03/30 05:31:19;;;;;;;12.23;7.07;;;9.10;66.10;;;;;;4993481;28;20045;-81
2022/03/30 05:33:45;;;;;;;11.52;7.43;;;9.10;66.20;;;;;;5004599;28;20093;-80
2022/03/30 05:36:12;;;;;;;11.68;7.32;;;9.10;66.30;;;;;;4995962;28;20049;-80
2022/03/30 05:38:37;;;;;;;11.90;6.82;;;9.10;66.30;;;;;;4988651;28;20033;-80
2022/03/30 05:41:03;;;;;;;12.02;7.32;;;9.10;66.40;;;;;;5002261;28;20044;-80
2022/03/30 05:43:28;;;;;;;12.35;8.05;;;9.10;66.50;;;;;;5015849;28;20040;-80
2022/03/30 05:45:54;;;;;;;11.63;6.82;;;9.10;66.50;;;;;;4981958;28;20096;-80
2022/03/30 05:48:20;;;;;;;15.98;7.93;;;9.10;66.70;;;;;;5016996;28;20446;-80
2022/03/30 05:50:45;;;;;;;12.10;7.30;;;9.00;66.70;;;;;;5007245;28;20050;-80
2022/03/30 05:53:13;;;;;;;13.35;7.72;;;9.00;66.80;;;;;;4996787;28;20539;-80
2022/03/30 05:55:38;;;;;;;10.90;6.38;;;9.00;66.90;;;;;;5006306;28;20523;-80
2022/03/30 05:58:04;;;;;;;14.43;7.82;;;9.00;66.90;;;;;;5008732;28;20048;-80
2022/03/30 06:00:30;;;;;;;13.45;7.28;;;9.00;67.00;;;;;;5005686;28;20109;-80
2022/03/30 06:02:55;;;;;;;11.68;6.93;;;9.00;67.10;;;;;;5003523;28;20049;-80
2022/03/30 06:05:21;;;;;;;13.65;7.57;;;9.10;67.20;;;;;;5012749;28;20034;-80
2022/03/30 06:07:46;;;;;;;12.75;7.82;;;9.10;67.30;;;;;;4989637;28;20049;-80
2022/03/30 06:10:12;;;;;;;13.60;8.05;;;9.00;67.40;;;;;;4983802;28;20059;-80
2022/03/30 06:12:38;;;;;;;15.40;8.23;;;9.00;67.40;;;;;;4977948;28;20045;-80
2022/03/30 06:15:04;;;;;;;14.93;8.65;;;9.10;67.50;;;;;;5005148;28;20034;-80
2022/03/30 06:17:30;;;;;;;17.00;8.98;;;9.10;67.70;;;;;;5000502;28;20706;-80
2022/03/30 06:19:58;;;;;;;15.30;8.85;;;9.00;68.00;;;;;;5010901;28;20030;-80
2022/03/30 06:22:27;;;;;;;13.82;8.65;;;9.10;68.20;;;;;;5004782;28;20037;-80
2022/03/30 06:24:53;;;;;;;19.25;9.25;;;9.00;68.20;;;;;;5004304;28;20045;-80
2022/03/30 06:27:18;;;;;;;17.17;8.73;;;9.00;68.30;;;;;;5002732;28;20152;-80
2022/03/30 06:29:44;;;;;;;17.42;9.45;;;9.00;68.40;;;;;;4994951;28;20121;-80
2022/03/30 06:32:09;;;;;;;16.38;9.35;;;9.00;68.50;;;;;;5008341;28;20870;-80
2022/03/30 06:34:37;;;;;;;14.38;8.95;;;9.00;68.50;;;;;;4995101;28;20539;-79
2022/03/30 06:37:05;;;;;;;16.80;9.35;;;9.00;68.50;;;;;;5014572;28;20482;-80
2022/03/30 06:39:31;;;;;;;18.38;9.63;;;9.10;68.70;;;;;;5002090;28;20041;-80
2022/03/30 06:41:57;;;;;;;19.58;10.18;;;9.10;68.70;;;;;;4985488;28;20022;-79
2022/03/30 06:44:23;;;;;;;21.67;9.70;;;9.10;68.80;;;;;;5015831;28;20033;-80
2022/03/30 06:46:49;;;;;;;19.23;10.90;;;9.10;68.90;;;;;;5019927;28;20030;-79
2022/03/30 06:49:14;;;;;;;19.98;10.52;;;9.10;68.80;;;;;;5011339;28;20165;-79
2022/03/30 06:51:40;;;;;;;24.42;12.05;;;9.10;68.90;;;;;;4995272;28;20120;-80
2022/03/30 06:54:06;;;;;;;19.55;10.45;;;9.10;69.00;;;;;;5014221;28;20519;-80
2022/03/30 06:56:31;;;;;;;22.42;9.88;;;9.10;69.10;;;;;;5001729;28;20046;-80
2022/03/30 06:58:57;;;;;;;20.85;11.05;;;9.10;69.10;;;;;;5006015;28;20522;-80
2022/03/30 07:01:22;;;;;;;24.25;12.43;;;9.10;69.20;;;;;;5015056;28;20057;-80
2022/03/30 07:03:48;;;;;;;24.98;12.85;;;9.10;69.20;;;;;;5003655;28;20053;-80
2022/03/30 07:06:13;;;;;;;22.52;12.70;;;9.10;69.50;;;;;;5005986;28;20034;-80
2022/03/30 07:11:24;;;;;;;24.45;12.55;;;9.00;69.50;;;;;;5011653;28;20610;-80
2022/03/30 07:13:50;;;;;;;28.95;14.30;;;9.00;69.60;;;;;;4998493;28;20148;-80
2022/03/30 07:16:16;;;;;;;34.30;15.98;;;9.00;70.50;;;;;;5009584;28;20131;-80
2022/03/30 07:18:42;;;;;;;35.40;16.10;;;9.00;69.80;;;;;;5000172;28;20130;-80
2022/03/30 07:21:07;;;;;;;30.60;14.43;;;9.00;69.90;;;;;;5007174;28;20038;-80
2022/03/30 07:23:33;;;;;;;28.83;14.50;;;9.00;70.00;;;;;;5002942;28;20026;-80
2022/03/30 07:26:00;;;;;;;30.10;15.73;;;9.00;70.10;;;;;;5000518;28;20042;-80
2022/03/30 07:28:28;;;;;;;30.60;15.23;;;9.00;70.10;;;;;;5012561;28;20038;-80
2022/03/30 07:30:54;;;;;;;31.92;15.07;;;9.00;70.10;;;;;;5004757;28;20034;-80
2022/03/30 07:33:22;;;;;;;28.90;14.50;;;9.00;70.80;;;;;;4978662;28;20135;-80
2022/03/30 07:35:48;;;;;;;30.02;16.05;;;9.00;70.00;;;;;;5003759;28;20046;-80
2022/03/30 07:38:14;;;;;;;39.42;16.65;;;9.00;70.20;;;;;;5013352;28;20068;-80
2022/03/30 07:40:40;;;;;;;33.33;16.77;;;9.00;70.20;;;;;;4982277;28;20045;-80
2022/03/30 07:43:05;;;;;;;33.65;17.75;;;9.00;70.20;;;;;;4984069;28;20038;-80
2022/03/30 07:45:31;;;;;;;37.17;18.67;;;9.00;70.10;;;;;;4990406;28;20059;-80
2022/03/30 07:47:57;;;;;;;36.08;18.25;;;9.10;70.20;;;;;;4982900;28;20060;-80
2022/03/30 07:50:23;;;;;;;40.78;18.70;;;9.10;70.20;;;;;;5006863;28;20069;-80
2022/03/30 07:52:48;;;;;;;36.70;18.38;;;9.10;70.20;;;;;;4988976;28;20129;-80
2022/03/30 07:55:14;;;;;;;42.63;19.20;;;9.10;70.20;;;;;;4990499;28;20120;-80
2022/03/30 07:57:42;;;;;;;34.08;17.73;;;9.10;70.30;;;;;;4995919;28;20454;-80
2022/03/30 08:00:09;;;;;;;35.03;18.15;;;9.10;70.20;;;;;;5001136;28;20054;-80
2022/03/30 08:02:35;;;;;;;36.70;18.45;;;9.10;70.30;;;;;;4995286;28;20062;-80
2022/03/30 08:05:00;;;;;;;34.83;18.15;;;9.10;70.40;;;;;;5009799;28;20022;-80
2022/03/30 08:07:26;;;;;;;32.83;17.23;;;9.10;70.40;;;;;;4979366;28;20018;-80
2022/03/30 08:09:52;;;;;;;40.55;18.05;;;9.10;70.40;;;;;;5007952;28;20647;-80
2022/03/30 08:12:20;;;;;;;36.95;18.05;;;9.10;70.40;;;;;;4973324;28;20081;-80
2022/03/30 08:14:46;;;;;;;39.28;19.42;;;9.10;70.40;;;;;;5001345;28;20029;-80
2022/03/30 08:17:11;;;;;;;35.35;17.67;;;9.10;70.40;;;;;;5004199;28;20030;-80
2022/03/30 08:19:37;;;;;;;38.05;19.95;;;9.10;70.40;;;;;;4982766;28;20044;-80
2022/03/30 08:24:47;;;;;;;44.17;21.90;;;9.10;70.30;;;;;;4997221;28;20100;-80
2022/03/30 08:27:20;;;;;;;45.47;21.85;;;9.10;70.30;;;;;;5011846;28;20030;-80
2022/03/30 08:29:46;;;;;;;48.17;21.23;;;9.10;70.40;;;;;;5008163;28;20026;-80
2022/03/30 08:32:12;;;;;;;39.30;20.65;;;9.10;70.30;;;;;;5006919;28;20511;-80
2022/03/30 08:34:38;;;;;;;45.72;22.60;;;9.10;70.40;;;;;;5016043;28;20068;-80
2022/03/30 08:37:04;;;;;;;43.72;21.50;;;9.10;70.50;;;;;;5019536;28;20029;-80
2022/03/30 08:39:30;;;;;;;40.17;19.58;;;9.10;70.50;;;;;;5002996;28;20049;-80
2022/03/30 08:41:55;;;;;;;42.85;21.33;;;9.10;70.50;;;;;;5004678;28;20026;-80
2022/03/30 08:44:21;;;;;;;39.33;21.73;;;9.10;70.50;;;;;;5014052;28;20114;-80
2022/03/30 08:46:47;;;;;;;40.92;21.30;;;9.10;70.60;;;;;;5007971;28;20636;-80
2022/03/30 08:49:13;;;;;;;36.95;20.67;;;9.10;70.70;;;;;;5007442;28;20037;-80
2022/03/30 08:51:39;;;;;;;44.63;22.02;;;9.10;70.60;;;;;;5010102;28;20043;-80
2022/03/30 08:54:05;;;;;;;37.90;20.25;;;9.10;70.80;;;;;;5008428;28;20030;-80
2022/03/30 08:56:31;;;;;;;38.58;20.13;;;9.20;70.90;;;;;;5012320;28;20125;-80
2022/03/30 08:59:10;;;;;;;41.88;21.15;;;9.20;70.90;;;;;;5011248;28;20157;-80
2022/03/30 09:01:37;;;;;;;40.97;20.77;;;9.20;71.40;;;;;;5008417;28;20034;-80
2022/03/30 09:04:04;;;;;;;42.42;22.63;;;9.20;71.00;;;;;;4977129;28;20074;-80
2022/03/30 09:06:49;;;;;;;44.17;21.83;;;9.20;71.20;;;;;;5016234;28;20086;-80
2022/03/30 09:09:16;;;;;;;45.05;22.17;;;9.20;71.90;;;;;;4969683;28;20072;-80
2022/03/30 09:11:41;;;;;;;45.80;22.40;;;9.20;71.50;;;;;;5015562;28;20037;-80
2022/03/30 09:14:09;;;;;;;40.78;20.75;;;9.20;71.70;;;;;;5016623;28;20076;-80
2022/03/30 09:16:44;;;;;;;48.38;22.25;;;9.10;71.80;;;;;;5005858;28;20687;-80
2022/03/30 09:19:12;;;;;;;38.97;20.67;;;9.10;72.00;;;;;;4991960;28;20037;-80
2022/03/30 09:21:44;;;;;;;36.85;19.92;;;9.10;71.90;;;;;;4995881;28;20061;-80
2022/03/30 09:24:10;;;;;;;47.38;23.42;;;9.10;72.00;;;;;;4980260;28;21537;-80
2022/03/30 09:26:36;;;;;;;37.65;21.25;;;9.10;72.00;;;;;;4980558;28;20038;-80
2022/03/30 09:29:02;;;;;;;42.13;20.25;;;9.10;72.10;;;;;;4973080;28;20026;-79
2022/03/30 09:31:30;;;;;;;48.72;23.63;;;9.10;72.20;;;;;;4965684;28;20114;-79
2022/03/30 09:33:58;;;;;;;40.58;20.83;;;9.10;72.20;;;;;;4985529;28;20057;-79
2022/03/30 09:36:30;;;;;;;48.25;23.67;;;9.10;72.20;;;;;;4956818;28;20512;-79
2022/03/30 09:38:56;;;;;;;45.95;23.48;;;9.10;72.50;;;;;;4979415;28;20038;-79
2022/03/30 09:41:21;;;;;;;44.67;21.65;;;9.10;72.40;;;;;;4990208;28;20122;-79
2022/03/30 09:43:47;;;;;;;44.95;22.35;;;9.10;72.40;;;;;;4977897;28;20519;-79
2022/03/30 09:46:13;;;;;;;43.00;22.02;;;9.20;72.40;;;;;;4979256;28;20503;-79
2022/03/30 09:48:53;;;;;;;43.72;22.77;;;9.20;72.50;;;;;;4958869;28;20049;-79
2022/03/30 09:51:19;;;;;;;43.13;22.33;;;9.20;72.50;;;;;;4990669;28;20136;-79
2022/03/30 09:53:46;;;;;;;45.13;21.45;;;9.20;72.60;;;;;;4969307;28;20056;-79
2022/03/30 09:56:22;;;;;;;42.25;22.25;;;9.20;72.60;;;;;;4963245;28;20037;-80
2022/03/30 09:58:48;;;;;;;41.63;21.85;;;9.20;72.90;;;;;;4992702;28;20034;-80
2022/03/30 10:01:22;;;;;;;42.70;22.08;;;9.20;72.60;;;;;;4982731;28;20048;-80
2022/03/30 10:03:52;;;;;;;42.15;20.90;;;9.20;72.80;;;;;;4957350;28;20034;-80
2022/03/30 10:06:32;;;;;;;93.68;38.72;;;9.30;72.90;;;;;;4992402;28;20605;-80
2022/03/30 10:08:58;;;;;;;88.22;35.88;;;9.30;73.10;;;;;;4991590;28;20041;-80
2022/03/30 10:11:25;;;;;;;318.25;108.80;;;9.30;73.00;;;;;;4954928;28;20049;-80
2022/03/30 10:13:56;;;;;;;138.55;53.08;;;9.30;73.20;;;;;;4979727;28;20034;-80
2022/03/30 10:16:22;;;;;;;96.03;41.47;;;9.30;73.40;;;;;;4967709;28;20041;-80
2022/03/30 10:18:49;;;;;;;72.68;32.72;;;9.30;73.20;;;;;;4966705;28;20117;-79
2022/03/30 10:21:39;;;;;;;61.72;28.67;;;9.30;73.40;;;;;;4966986;28;20061;-79
2022/03/30 10:24:40;;;;;;;49.95;23.98;;;9.30;73.40;;;;;;4995998;28;20462;-80
2022/03/30 10:27:36;;;;;;;36.17;19.98;;;9.30;73.70;;;;;;4999412;28;20045;-79
2022/03/30 10:30:05;;;;;;;33.25;17.52;;;9.40;73.80;;;;;;4975617;28;20034;-79
2022/03/30 10:32:37;;;;;;;33.53;17.55;;;9.40;73.30;;;;;;4975454;28;20037;-79
2022/03/30 10:35:12;;;;;;;32.70;17.83;;;9.40;73.50;;;;;;5005661;28;20124;-80
2022/03/30 10:37:41;;;;;;;29.65;17.25;;;9.40;73.60;;;;;;4990922;28;20091;-80
2022/03/30 10:40:08;;;;;;;31.90;17.50;;;9.40;73.30;;;;;;4986318;28;20065;-79
2022/03/30 10:42:46;;;;;;;30.52;16.73;;;9.40;73.50;;;;;;4997690;28;20766;-79
2022/03/30 10:45:37;;;;;;;26.85;15.23;;;9.40;73.80;;;;;;4995797;28;20121;-80
2022/03/30 10:48:06;;;;;;;;;;;9.40;73.70;;;;;;4977751;28;20038;-79
2022/03/30 10:50:33;;;;;;;29.50;15.95;;;9.40;73.00;;;;;;5003829;28;19914;-80
2022/03/30 10:52:59;;;;;;;31.08;16.13;;;9.50;72.90;;;;;;4994053;28;20037;-80
2022/03/30 10:55:24;;;;;;;25.45;15.85;;;9.50;73.10;;;;;;4974824;28;20030;-79
2022/03/30 10:58:01;;;;;;;25.48;13.10;;;9.50;73.30;;;;;;5004791;28;20277;-80
2022/03/30 11:00:36;;;;;;;29.92;15.57;;;9.50;73.30;;;;;;4996168;28;20124;-79
2022/03/30 11:03:20;;;;;;;25.60;14.23;;;9.50;73.60;;;;;;4991196;28;20412;-80
2022/03/30 11:05:59;;;;;;;26.00;14.32;;;9.60;73.80;;;;;;4982982;28;20702;-80
2022/03/30 11:08:34;;;;;;;24.35;13.48;;;9.60;73.60;;;;;;5001662;28;20038;-80
2022/03/30 11:11:21;;;;;;;26.77;14.60;;;9.70;73.50;;;;;;5006624;28;20123;-80
2022/03/30 11:13:47;;;;;;;23.05;13.20;;;9.70;73.30;;;;;;4995274;28;20065;-80
2022/03/30 11:16:12;;;;;;;25.85;15.05;;;9.80;73.10;;;;;;5000620;28;20064;-79
2022/03/30 11:18:55;;;;;;;27.48;14.75;;;9.90;73.10;;;;;;5005425;28;20486;-80
2022/03/30 11:21:21;;;;;;;28.75;15.35;;;9.90;73.60;;;;;;4981302;28;20045;-80
2022/03/30 11:23:56;;;;;;;25.63;14.45;;;9.90;73.00;;;;;;4951821;28;20039;-80
2022/03/30 11:26:23;;;;;;;25.52;14.20;;;10.00;73.20;;;;;;4975327;28;20605;-79
2022/03/30 11:28:48;;;;;;;25.33;13.88;;;10.00;73.00;;;;;;4990726;28;20034;-80
2022/03/30 11:31:21;;;;;;;27.70;14.88;;;10.00;72.90;;;;;;4977308;28;20038;-80
2022/03/30 11:34:39;;;;;;;30.45;16.60;;;10.00;72.90;;;;;;4944426;28;20027;-80
2022/03/30 11:37:04;;;;;;;27.60;15.30;;;10.10;73.20;;;;;;4934820;28;20046;-79
2022/03/30 11:39:33;;;;;;;28.08;15.70;;;10.10;72.60;;;;;;4971670;28;20478;-80
2022/03/30 11:42:00;;;;;;;25.13;14.63;;;10.20;72.80;;;;;;4986832;28;20042;-80
2022/03/30 11:47:13;;;;;;;24.70;13.95;;;10.20;72.80;;;;;;4981021;28;20084;-80
2022/03/30 11:49:51;;;;;;;24.75;12.63;;;10.30;72.80;;;;;;4970330;28;20038;-79
2022/03/30 11:52:17;;;;;;;23.02;13.45;;;10.30;73.00;;;;;;4974677;28;20031;-79
2022/03/30 11:54:47;;;;;;;23.27;13.30;;;10.40;73.40;;;;;;4973249;28;20041;-79
2022/03/30 11:57:13;;;;;;;22.88;13.00;;;10.40;72.60;;;;;;4969723;28;20404;-79
2022/03/30 11:59:39;;;;;;;25.25;13.02;;;10.40;72.40;;;;;;4982789;28;20038;-80
2022/03/30 12:02:04;;;;;;;22.52;13.32;;;10.50;72.50;;;;;;4963580;28;20037;-79
2022/03/30 12:04:31;;;;;;;22.35;13.80;;;10.50;72.40;;;;;;4975949;28;20556;-79
2022/03/30 12:06:57;;;;;;;22.25;12.70;;;10.60;72.40;;;;;;4989641;28;20029;-79
2022/03/30 12:09:22;;;;;;;23.45;12.68;;;10.70;72.40;;;;;;4964449;28;20524;-79
2022/03/30 12:11:49;;;;;;;25.70;14.05;;;10.70;72.50;;;;;;4984443;28;20086;-79
2022/03/30 12:14:26;;;;;;;23.52;12.73;;;10.80;72.40;;;;;;4976058;28;20048;-79
2022/03/30 12:16:52;;;;;;;25.58;12.98;;;10.80;72.50;;;;;;4972646;28;20047;-79
2022/03/30 12:19:19;;;;;;;20.50;12.68;;;10.90;72.20;;;;;;4972323;28;20042;-79
2022/03/30 12:21:45;;;;;;;20.20;12.20;;;10.90;72.00;;;;;;4970222;28;20399;-80
2022/03/30 12:24:11;;;;;;;21.98;13.32;;;11.00;72.80;;;;;;4981954;28;20041;-79
2022/03/30 12:26:37;;;;;;;23.73;12.32;;;11.00;71.90;;;;;;4977566;28;20392;-79
2022/03/30 12:29:04;;;;;;;21.23;11.73;;;11.10;71.80;;;;;;4959474;28;20038;-79
2022/03/30 12:31:39;;;;;;;23.63;13.88;;;11.20;71.60;;;;;;4972847;28;20542;-79
2022/03/30 12:34:12;;;;;;;23.98;12.52;;;11.30;71.50;;;;;;4965950;28;20038;-79
2022/03/30 12:36:42;;;;;;;22.50;11.60;;;11.40;71.30;;;;;;4984746;28;20049;-79
2022/03/30 12:39:18;;;;;;;22.13;12.15;;;11.40;71.10;;;;;;4970944;28;20496;-79
2022/03/30 12:41:44;;;;;;;20.52;11.93;;;11.40;71.10;;;;;;4978741;28;20109;-79
2022/03/30 12:44:09;;;;;;;20.85;11.77;;;11.50;70.80;;;;;;4964963;28;20173;-79
2022/03/30 12:46:35;;;;;;;22.38;12.73;;;11.50;70.70;;;;;;4982953;28;20188;-79
2022/03/30 12:49:05;;;;;;;23.88;12.38;;;11.60;70.60;;;;;;4985305;28;20057;-79
2022/03/30 12:51:33;;;;;;;24.80;12.43;;;11.60;70.40;;;;;;4974209;28;20094;-79
2022/03/30 12:53:59;;;;;;;20.55;12.60;;;11.60;70.30;;;;;;4972061;28;20396;-79
2022/03/30 12:56:25;;;;;;;25.42;13.05;;;11.60;70.20;;;;;;4980023;28;20034;-79
2022/03/30 12:58:51;;;;;;;20.38;12.02;;;11.60;70.10;;;;;;4978509;28;20034;-79